createdAt,value
2023-02-12T00:00:24.965Z,7.50
2023-02-12T00:03:11.990Z,10.07
2023-02-12T00:06:03.204Z,7.53
2023-02-12T00:08:52.866Z,13.33
2023-02-12T00:11:39.441Z,11.13
2023-02-12T00:14:26.053Z,11.40
2023-02-12T00:17:12.321Z,10.20
2023-02-12T00:19:58.762Z,9.70
2023-02-12T00:22:45.376Z,9.40
2023-02-12T00:25:33.402Z,5.97
2023-02-12T00:28:20.089Z,11.13
2023-02-12T00:31:08.382Z,8.50
2023-02-12T00:33:55.255Z,7.63
2023-02-12T00:36:41.574Z,10.63
2023-02-12T00:39:28.170Z,8.20
2023-02-12T00:42:15.811Z,9.37
2023-02-12T00:45:02.476Z,8.23
2023-02-12T00:47:48.876Z,9.30
2023-02-12T00:50:35.334Z,10.07
2023-02-12T00:53:21.745Z,9.30
2023-02-12T00:56:08.443Z,9.93
2023-02-12T00:58:55.991Z,9.07
2023-02-12T01:01:42.597Z,10.30
2023-02-12T01:04:29.556Z,9.47
2023-02-12T01:07:15.965Z,11.53
2023-02-12T01:10:02.423Z,10.77
2023-02-12T01:12:49.571Z,9.03
2023-02-12T01:15:37.702Z,12.50
2023-02-12T01:18:23.953Z,12.47
2023-02-12T01:21:11.614Z,11.93
2023-02-12T01:23:59.230Z,11.73
2023-02-12T01:26:45.851Z,11.40
2023-02-12T01:29:32.206Z,12.00
2023-02-12T01:32:20.147Z,12.00
2023-02-12T01:35:09.843Z,10.20
2023-02-12T01:37:58.336Z,14.27
2023-02-12T01:40:45.202Z,11.00
2023-02-12T01:43:31.871Z,15.83
2023-02-12T01:46:18.232Z,11.63
2023-02-12T01:49:08.988Z,12.33
2023-02-12T01:52:00.431Z,11.53
2023-02-12T01:54:47.800Z,13.10
2023-02-12T01:57:40.240Z,11.17
2023-02-12T02:00:26.930Z,15.20
2023-02-12T02:03:14.241Z,12.33
2023-02-12T02:06:07.462Z,9.87
2023-02-12T02:08:53.942Z,10.90
2023-02-12T02:11:57.928Z,15.50
2023-02-12T02:14:46.110Z,10.87
2023-02-12T02:17:42.753Z,13.87
2023-02-12T02:20:49.807Z,14.30
2023-02-12T02:23:54.920Z,10.20
2023-02-12T02:27:09.748Z,20.33
2023-02-12T02:30:18.617Z,14.37
2023-02-12T02:33:19.571Z,12.90
2023-02-12T02:36:25.527Z,16.23
2023-02-12T02:39:20.825Z,13.47
2023-02-12T02:42:15.522Z,17.70
2023-02-12T02:45:09.149Z,15.50
2023-02-12T02:48:02.631Z,13.97
2023-02-12T02:50:54.129Z,13.27
2023-02-12T02:53:44.643Z,15.50
2023-02-12T02:56:33.845Z,12.43
2023-02-12T02:59:26.508Z,13.03
2023-02-12T03:02:17.604Z,15.57
2023-02-12T03:05:10.890Z,18.10
2023-02-12T03:08:01.175Z,12.27
2023-02-12T03:10:52.482Z,13.83
2023-02-12T03:13:44.093Z,14.50
2023-02-12T03:16:33.767Z,17.87
2023-02-12T03:19:23.885Z,15.93
2023-02-12T03:22:15.376Z,11.70
2023-02-12T03:25:09.678Z,11.40
2023-02-12T03:28:03.910Z,11.27
2023-02-12T03:30:58.361Z,14.13
2023-02-12T03:33:59.266Z,16.63
2023-02-12T03:36:52.654Z,15.07
2023-02-12T03:39:50.669Z,15.67
2023-02-12T03:42:42.406Z,18.47
2023-02-12T03:45:39.932Z,14.73
2023-02-12T03:48:31.557Z,16.87
2023-02-12T03:51:23.205Z,15.60
2023-02-12T03:54:11.628Z,24.33
2023-02-12T03:57:04.773Z,15.80
2023-02-12T03:59:52.413Z,11.47
2023-02-12T04:02:38.885Z,17.40
2023-02-12T04:05:27.596Z,12.57
2023-02-12T04:08:14.900Z,21.60
2023-02-12T04:11:13.932Z,17.83
2023-02-12T04:14:19.036Z,18.53
2023-02-12T04:17:10.855Z,16.43
2023-02-12T04:20:10.758Z,15.77
2023-02-12T04:23:08.830Z,14.47
2023-02-12T04:26:08.700Z,13.53
2023-02-12T04:29:06.433Z,18.30
2023-02-12T04:31:59.493Z,14.50
2023-02-12T04:34:50.421Z,17.23
2023-02-12T04:37:43.041Z,14.07
2023-02-12T04:40:29.609Z,16.27
2023-02-12T04:43:16.467Z,16.97
2023-02-12T04:46:04.160Z,16.27
2023-02-12T04:48:55.726Z,14.80
2023-02-12T04:51:42.066Z,18.43
2023-02-12T04:54:28.553Z,18.03
2023-02-12T04:57:15.017Z,12.90
2023-02-12T05:00:01.516Z,16.30
2023-02-12T05:02:48.128Z,20.57
2023-02-12T05:05:36.525Z,21.83
2023-02-12T05:08:23.309Z,15.63
2023-02-12T05:11:11.045Z,15.23
2023-02-12T05:13:58.041Z,19.73
2023-02-12T05:16:44.793Z,16.67
2023-02-12T05:19:31.058Z,15.40
2023-02-12T05:22:18.823Z,18.20
2023-02-12T05:25:06.866Z,15.90
2023-02-12T05:27:53.219Z,17.20
2023-02-12T05:30:39.808Z,19.60
2023-02-12T05:33:26.432Z,19.17
2023-02-12T05:36:15.323Z,18.53
2023-02-12T05:39:03.157Z,19.87
2023-02-12T05:41:49.751Z,18.33
2023-02-12T05:44:36.302Z,18.50
2023-02-12T05:47:22.640Z,19.30
2023-02-12T05:50:09.724Z,21.50
2023-02-12T05:52:56.647Z,25.07
2023-02-12T05:55:44.362Z,24.27
2023-02-12T05:58:31.034Z,24.07
2023-02-12T06:01:20.097Z,24.93
2023-02-12T06:04:09.065Z,22.13
2023-02-12T06:06:57.084Z,22.83
2023-02-12T06:09:43.492Z,22.43
2023-02-12T06:12:31.277Z,20.20
2023-02-12T06:15:18.151Z,25.87
2023-02-12T06:18:04.952Z,22.20
2023-02-12T06:20:54.177Z,32.37
2023-02-12T06:23:40.981Z,23.03
2023-02-12T06:26:27.630Z,20.70
2023-02-12T06:29:15.980Z,21.67
2023-02-12T06:32:02.787Z,25.20
2023-02-12T06:34:49.505Z,23.10
2023-02-12T06:37:37.140Z,21.60
2023-02-12T06:40:24.243Z,26.40
2023-02-12T06:43:10.953Z,23.03
2023-02-12T06:46:02.180Z,22.40
2023-02-12T06:48:48.650Z,24.43
2023-02-12T06:51:36.472Z,23.53
2023-02-12T06:54:23.030Z,21.57
2023-02-12T06:57:10.079Z,20.87
2023-02-12T06:59:56.773Z,26.30
2023-02-12T07:02:44.657Z,20.27
2023-02-12T07:05:31.131Z,23.43
2023-02-12T07:08:17.519Z,22.20
2023-02-12T07:11:04.477Z,18.67
2023-02-12T07:13:50.814Z,20.37
2023-02-12T07:16:37.468Z,24.47
2023-02-12T07:19:26.272Z,15.97
2023-02-12T07:22:12.617Z,18.00
2023-02-12T07:24:59.132Z,20.20
2023-02-12T07:27:45.930Z,16.57
2023-02-12T07:30:32.428Z,20.73
2023-02-12T07:33:19.371Z,19.90
2023-02-12T07:36:10.352Z,19.60
2023-02-12T07:38:57.624Z,18.67
2023-02-12T07:41:43.988Z,20.93
2023-02-12T07:44:31.418Z,20.00
2023-02-12T07:47:18.707Z,19.03
2023-02-12T07:50:07.273Z,21.43
2023-02-12T07:52:55.278Z,19.73
2023-02-12T07:55:41.831Z,16.13
2023-02-12T07:58:28.276Z,22.60
2023-02-12T08:01:16.728Z,21.50
2023-02-12T08:04:05.450Z,19.83
2023-02-12T08:06:54.721Z,17.87
2023-02-12T08:09:42.939Z,20.73
2023-02-12T08:12:29.491Z,23.07
2023-02-12T08:15:15.933Z,24.97
2023-02-12T08:18:02.450Z,19.93
2023-02-12T08:20:48.779Z,25.57
2023-02-12T08:23:35.845Z,23.03
2023-02-12T08:26:28.880Z,20.60
2023-02-12T08:29:17.062Z,24.60
2023-02-12T08:32:06.339Z,20.97
2023-02-12T08:34:53.132Z,20.67
2023-02-12T08:37:39.513Z,19.97
2023-02-12T08:40:25.894Z,21.87
2023-02-12T08:43:13.579Z,20.83
2023-02-12T08:46:04.730Z,21.33
2023-02-12T08:48:56.466Z,25.63
2023-02-12T08:51:44.909Z,17.70
2023-02-12T08:54:32.711Z,19.27
2023-02-12T08:57:19.753Z,21.30
2023-02-12T09:00:09.566Z,18.07
2023-02-12T09:02:56.108Z,21.33
2023-02-12T09:05:43.178Z,17.90
2023-02-12T09:08:29.739Z,21.93
2023-02-12T09:11:18.333Z,23.30
2023-02-12T09:14:07.162Z,20.07
2023-02-12T09:16:57.333Z,19.10
2023-02-12T09:19:44.108Z,19.47
2023-02-12T09:22:30.757Z,18.90
2023-02-12T09:25:17.156Z,15.60
2023-02-12T09:28:03.847Z,19.67
2023-02-12T09:30:50.630Z,20.83
2023-02-12T09:33:39.344Z,20.13
2023-02-12T09:36:26.216Z,21.30
2023-02-12T09:39:12.969Z,17.70
2023-02-12T09:42:28.608Z,22.40
2023-02-12T09:45:20.421Z,22.87
2023-02-12T09:48:24.807Z,22.30
2023-02-12T09:51:13.711Z,21.17
2023-02-12T09:54:04.853Z,23.90
2023-02-12T09:56:55.281Z,19.43
2023-02-12T09:59:46.339Z,19.00
2023-02-12T10:02:34.911Z,22.87
2023-02-12T10:05:25.983Z,21.47
2023-02-12T10:08:29.911Z,23.17
2023-02-12T10:11:31.852Z,20.23
2023-02-12T10:14:46.385Z,19.07
2023-02-12T10:17:42.237Z,20.90
2023-02-12T10:20:41.817Z,19.63
2023-02-12T10:23:47.130Z,19.30
2023-02-12T10:26:39.033Z,18.73
2023-02-12T10:29:28.241Z,17.90
2023-02-12T10:32:24.746Z,17.73
2023-02-12T10:35:15.886Z,13.17
2023-02-12T10:38:07.295Z,15.43
2023-02-12T10:40:57.998Z,15.00
2023-02-12T10:43:44.854Z,15.40
2023-02-12T10:46:32.277Z,16.63
2023-02-12T10:49:20.696Z,16.47
2023-02-12T10:52:16.358Z,14.73
2023-02-12T10:55:02.925Z,16.30
2023-02-12T10:57:50.711Z,16.57
2023-02-12T11:00:39.433Z,18.63
2023-02-12T11:03:34.191Z,15.83
2023-02-12T11:06:23.397Z,17.17
2023-02-12T11:09:29.792Z,17.50
2023-02-12T11:12:21.943Z,18.53
2023-02-12T11:15:17.338Z,18.47
2023-02-12T11:18:07.537Z,13.90
2023-02-12T11:20:57.213Z,16.17
2023-02-12T11:23:45.254Z,13.20
2023-02-12T11:26:33.593Z,13.67
2023-02-12T11:29:23.645Z,16.10
2023-02-12T11:32:17.628Z,13.67
2023-02-12T11:35:12.220Z,12.50
2023-02-12T11:38:00.779Z,12.57
2023-02-12T11:40:48.614Z,13.37
2023-02-12T11:43:38.440Z,12.80
2023-02-12T11:46:27.523Z,15.93
2023-02-12T11:49:22.495Z,14.90
2023-02-12T11:52:18.139Z,13.10
2023-02-12T11:55:07.817Z,14.07
2023-02-12T11:58:02.810Z,14.10
2023-02-12T12:00:55.742Z,12.60
2023-02-12T12:03:50.531Z,14.37
2023-02-12T12:06:41.927Z,11.47
2023-02-12T12:09:34.857Z,10.73
2023-02-12T12:12:26.158Z,13.50
2023-02-12T12:15:39.460Z,14.07
2023-02-12T12:18:50.069Z,12.43
2023-02-12T12:21:43.807Z,11.03
2023-02-12T12:24:39.299Z,11.63
2023-02-12T12:27:50.917Z,10.07
2023-02-12T12:30:55.707Z,12.03
2023-02-12T12:33:47.323Z,9.97
2023-02-12T12:37:02.649Z,12.43
2023-02-12T12:40:04.510Z,11.70
2023-02-12T12:43:23.236Z,9.20
2023-02-12T12:46:45.530Z,8.13
2023-02-12T12:49:49.405Z,11.10
2023-02-12T12:53:12.842Z,10.37
2023-02-12T12:56:23.039Z,10.53
2023-02-12T12:59:27.796Z,9.20
2023-02-12T13:02:44.508Z,8.53
2023-02-12T13:05:55.277Z,7.27
2023-02-12T13:08:59.875Z,5.57
2023-02-12T13:12:03.446Z,6.03
2023-02-12T13:15:00.215Z,8.00
2023-02-12T13:17:56.442Z,6.17
2023-02-12T13:20:49.756Z,6.70
2023-02-12T13:23:42.790Z,5.97
2023-02-12T13:26:46.569Z,6.10
2023-02-12T13:29:38.098Z,5.87
2023-02-12T13:32:29.076Z,5.63
2023-02-12T13:35:19.772Z,4.57
2023-02-12T13:38:09.690Z,5.47
2023-02-12T13:41:01.009Z,5.27
2023-02-12T13:43:59.891Z,5.53
2023-02-12T13:46:56.945Z,5.67
2023-02-12T13:49:49.946Z,5.73
2023-02-12T13:52:41.703Z,6.63
2023-02-12T13:55:34.549Z,5.00
2023-02-12T13:58:50.256Z,6.63
2023-02-12T14:01:47.465Z,5.83
2023-02-12T14:04:36.066Z,5.87
2023-02-12T14:07:23.435Z,4.77
2023-02-12T14:10:22.135Z,5.30
2023-02-12T14:13:18.886Z,4.70
2023-02-12T14:19:30.326Z,4.43
2023-02-12T14:23:03.169Z,5.10
2023-02-12T14:25:58.838Z,5.43
2023-02-12T14:28:52.001Z,4.70
2023-02-12T14:31:39.327Z,4.67
2023-02-12T14:34:50.054Z,5.57
2023-02-12T14:37:38.576Z,5.67
2023-02-12T14:40:42.887Z,5.73
2023-02-12T14:43:55.505Z,5.20
2023-02-12T14:46:48.432Z,4.40
2023-02-12T14:49:42.318Z,4.87
2023-02-12T14:52:33.046Z,5.50
2023-02-12T14:55:27.815Z,6.47
2023-02-12T14:58:20.444Z,5.23
2023-02-12T15:01:08.489Z,5.97
2023-02-12T15:03:58.777Z,6.20
2023-02-12T15:06:52.005Z,4.80
2023-02-12T15:09:43.564Z,5.13
2023-02-12T15:12:35.635Z,6.13
2023-02-12T15:15:30.821Z,6.47
2023-02-12T15:18:24.002Z,4.50
2023-02-12T15:21:22.002Z,4.83
2023-02-12T15:24:10.066Z,4.67
2023-02-12T15:26:59.003Z,5.47
2023-02-12T15:29:49.451Z,5.00
2023-02-12T15:32:39.094Z,5.27
2023-02-12T15:35:28.184Z,4.67
2023-02-12T15:38:22.358Z,5.60
2023-02-12T15:41:10.145Z,5.03
2023-02-12T15:43:57.048Z,6.13
2023-02-12T15:46:59.635Z,5.43
2023-02-12T15:49:46.232Z,5.03
2023-02-12T15:52:37.306Z,4.27
2023-02-12T15:55:27.354Z,4.77
2023-02-12T15:58:24.287Z,5.20
2023-02-12T16:01:17.908Z,4.73
2023-02-12T16:04:08.035Z,4.77
2023-02-12T16:06:55.168Z,4.23
2023-02-12T16:09:42.953Z,4.90
2023-02-12T16:12:36.909Z,4.67
2023-02-12T16:15:32.298Z,4.93
2023-02-12T16:18:26.928Z,4.73
2023-02-12T16:21:17.359Z,5.47
2023-02-12T16:24:04.249Z,4.73
2023-02-12T16:26:51.313Z,4.57
2023-02-12T16:29:45.675Z,5.87
2023-02-12T16:32:37.754Z,5.07
2023-02-12T16:35:31.561Z,4.20
2023-02-12T16:38:41.379Z,4.07
2023-02-12T16:41:30.691Z,5.27
2023-02-12T16:44:29.478Z,6.13
2023-02-12T16:47:22.237Z,5.70
2023-02-12T16:50:17.350Z,4.87
2023-02-12T16:53:05.620Z,4.80
2023-02-12T16:55:53.925Z,5.27
2023-02-12T16:58:40.634Z,5.57
2023-02-12T17:01:28.652Z,6.40
2023-02-12T17:04:17.357Z,5.93
2023-02-12T17:07:04.329Z,6.80
2023-02-12T17:09:51.055Z,6.43
2023-02-12T17:12:46.298Z,6.00
2023-02-12T17:15:41.349Z,9.83
2023-02-12T17:18:28.456Z,8.70
2023-02-12T17:21:23.221Z,7.03
2023-02-12T17:24:17.650Z,8.20
2023-02-12T17:27:05.278Z,9.10
2023-02-12T17:29:53.446Z,7.67
2023-02-12T17:32:39.741Z,9.73
2023-02-12T17:35:26.034Z,7.77
2023-02-12T17:38:12.544Z,9.97
2023-02-12T17:40:59.276Z,7.00
2023-02-12T17:43:46.434Z,7.27
2023-02-12T17:46:34.794Z,7.63
2023-02-12T17:49:21.497Z,7.50
2023-02-12T17:52:07.903Z,7.10
2023-02-12T17:54:54.305Z,8.10
2023-02-12T17:57:41.290Z,7.80
2023-02-12T18:00:27.919Z,6.43
2023-02-12T18:03:15.672Z,8.37
2023-02-12T18:06:02.407Z,8.83
2023-02-12T18:08:49.133Z,8.40
2023-02-12T18:11:35.692Z,8.10
2023-02-12T18:14:22.323Z,6.87
2023-02-12T18:17:08.751Z,10.70
2023-02-12T18:19:57.427Z,9.80
2023-02-12T18:22:45.369Z,12.13
2023-02-12T18:25:31.758Z,49.47
2023-02-12T18:28:18.226Z,16.67
2023-02-12T18:31:05.682Z,11.13
2023-02-12T18:33:53.492Z,10.63
2023-02-12T18:36:41.722Z,11.93
2023-02-12T18:39:29.199Z,12.87
2023-02-12T18:42:15.699Z,11.70
2023-02-12T18:45:02.101Z,9.30
2023-02-12T18:47:48.914Z,11.73
2023-02-12T18:50:35.250Z,9.37
2023-02-12T18:53:23.057Z,12.50
2023-02-12T18:56:11.614Z,9.63
2023-02-12T18:58:58.553Z,11.73
2023-02-12T19:01:46.397Z,8.77
2023-02-12T19:04:33.343Z,9.23
2023-02-12T19:07:20.171Z,8.10
2023-02-12T19:10:09.719Z,8.87
2023-02-12T19:12:56.647Z,8.93
2023-02-12T19:15:43.010Z,8.83
2023-02-12T19:18:29.332Z,10.37
2023-02-12T19:21:16.862Z,9.90
2023-02-12T19:24:05.164Z,12.57
2023-02-12T19:26:54.535Z,11.67
2023-02-12T19:29:41.190Z,10.73
2023-02-12T19:32:27.846Z,12.30
2023-02-12T19:35:14.245Z,12.23
2023-02-12T19:38:01.486Z,11.13
2023-02-12T19:40:48.183Z,13.37
2023-02-12T19:43:36.421Z,14.17
2023-02-12T19:46:23.069Z,9.10
2023-02-12T19:49:15.023Z,14.43
2023-02-12T19:52:01.747Z,9.93
2023-02-12T19:54:48.393Z,11.20
2023-02-12T19:57:36.684Z,10.60
2023-02-12T20:00:24.675Z,9.27
2023-02-12T20:03:11.253Z,9.17
2023-02-12T20:06:02.047Z,12.73
2023-02-12T20:08:48.750Z,12.57
2023-02-12T20:11:38.477Z,13.07
2023-02-12T20:14:25.250Z,11.67
2023-02-12T20:17:14.211Z,12.87
2023-02-12T20:20:00.629Z,13.67
2023-02-12T20:22:47.173Z,12.77
2023-02-12T20:25:33.620Z,13.67
2023-02-12T20:28:20.411Z,13.37
2023-02-12T20:31:11.969Z,12.93
2023-02-12T20:34:02.265Z,12.27
2023-02-12T20:36:49.421Z,14.00
2023-02-12T20:39:35.726Z,17.60
2023-02-12T20:42:22.033Z,15.17
2023-02-12T20:45:09.186Z,15.60
2023-02-12T20:47:55.553Z,14.00
2023-02-12T20:50:43.261Z,15.20
2023-02-12T20:53:29.705Z,16.37
2023-02-12T20:56:20.189Z,15.93
2023-02-12T20:59:08.083Z,16.13
2023-02-12T21:01:54.551Z,14.77
2023-02-12T21:04:41.395Z,14.70
2023-02-12T21:07:29.155Z,16.03
2023-02-12T21:10:15.913Z,14.03
2023-02-12T21:13:02.513Z,14.73
2023-02-12T21:15:48.991Z,15.13
2023-02-12T21:18:35.801Z,15.13
2023-02-12T21:21:24.412Z,15.33
2023-02-12T21:24:14.420Z,13.70
2023-02-12T21:27:00.990Z,13.47
2023-02-12T21:29:47.395Z,14.87
2023-02-12T21:32:33.880Z,14.23
2023-02-12T21:35:20.588Z,14.83
2023-02-12T21:38:07.065Z,14.53
2023-02-12T21:40:54.819Z,15.17
2023-02-12T21:43:43.212Z,12.30
2023-02-12T21:46:30.647Z,15.60
2023-02-12T21:49:24.747Z,17.60
2023-02-12T21:52:11.578Z,13.43
2023-02-12T21:54:58.272Z,12.30
2023-02-12T21:57:47.338Z,14.10
2023-02-12T22:00:33.870Z,14.80
2023-02-12T22:03:20.333Z,14.60
2023-02-12T22:06:09.292Z,14.30
2023-02-12T22:08:56.734Z,17.00
2023-02-12T22:11:43.760Z,16.33
2023-02-12T22:14:31.579Z,14.47
2023-02-12T22:17:18.232Z,14.30
2023-02-12T22:20:04.923Z,15.53
2023-02-12T22:22:51.317Z,15.27
2023-02-12T22:25:37.670Z,16.60
2023-02-12T22:28:23.948Z,14.70
2023-02-12T22:31:13.132Z,14.60
2023-02-12T22:34:01.504Z,15.03
2023-02-12T22:36:48.658Z,17.53
2023-02-12T22:39:34.916Z,15.63
2023-02-12T22:42:21.389Z,14.30
2023-02-12T22:45:08.645Z,13.90
2023-02-12T22:47:56.586Z,15.70
2023-02-12T22:50:43.189Z,14.93
2023-02-12T22:53:29.637Z,14.30
2023-02-12T22:56:16.860Z,14.27
2023-02-12T22:59:03.424Z,14.00
2023-02-12T23:01:50.128Z,12.17
2023-02-12T23:04:37.853Z,13.30
2023-02-12T23:07:24.379Z,12.93
2023-02-12T23:10:11.276Z,15.80
2023-02-12T23:12:57.701Z,16.03
2023-02-12T23:15:44.209Z,13.50
2023-02-12T23:18:30.772Z,13.60
2023-02-12T23:21:18.470Z,12.50
2023-02-12T23:24:05.358Z,14.00
2023-02-12T23:26:51.790Z,11.20
2023-02-12T23:29:38.125Z,13.93
2023-02-12T23:32:24.564Z,11.77
2023-02-12T23:35:10.993Z,15.43
2023-02-12T23:37:58.793Z,12.53
2023-02-12T23:40:45.492Z,11.23
2023-02-12T23:43:32.772Z,11.47
2023-02-12T23:46:19.445Z,11.23
2023-02-12T23:49:06.531Z,12.83
2023-02-12T23:51:53.181Z,12.33
2023-02-12T23:54:40.980Z,13.57
2023-02-12T23:57:27.562Z,11.37
